Terminal Aerodrome Forecast
Issued by NWS Cleveland, OH

Home | Current Version | Previous Version | Graphics & Text | Print | Product List | Glossary On
Versions: 1 2 3 4 5 6 7 8 9 10 11 12 13 14 15 16 17 18 19
000
FTUS41 KCLE 251234 CCA
TAFTOL
TAF COR
KTOL 251234Z 2512/2612 22010G20KT P6SM SCT035 OVC050
      TEMPO 2512/2515 22010KT 5SM -SHRASN BKN028
     FM251800 26020G30KT P6SM OVC025
     FM260000 27015G23KT P6SM BKN030
     FM260800 27010KT P6SM SCT030=

USA.gov is the U.S. government's official web portal to all federal, state and local government web resources and services.